sensor_id;sensor_type;location;lat;lon;timestamp;temperature;humidity
23347;DHT22;36852;45.466;11.066;2023-04-16T00:01:12;14.40;92.90
23347;DHT22;36852;45.466;11.066;2023-04-16T00:03:40;14.40;92.50
23347;DHT22;36852;45.466;11.066;2023-04-16T00:06:09;14.40;92.50
23347;DHT22;36852;45.466;11.066;2023-04-16T00:08:38;14.30;92.20
23347;DHT22;36852;45.466;11.066;2023-04-16T00:11:07;14.20;92.20
23347;DHT22;36852;45.466;11.066;2023-04-16T00:13:35;14.20;92.00
23347;DHT22;36852;45.466;11.066;2023-04-16T00:16:04;14.20;92.10
23347;DHT22;36852;45.466;11.066;2023-04-16T00:18:32;14.20;92.20
23347;DHT22;36852;45.466;11.066;2023-04-16T00:21:02;14.20;92.40
23347;DHT22;36852;45.466;11.066;2023-04-16T00:23:32;14.10;92.30
23347;DHT22;36852;45.466;11.066;2023-04-16T00:26:00;14.20;92.50
23347;DHT22;36852;45.466;11.066;2023-04-16T00:28:27;14.10;92.50
23347;DHT22;36852;45.466;11.066;2023-04-16T00:30:56;14.10;92.50
23347;DHT22;36852;45.466;11.066;2023-04-16T00:33:24;14.10;92.70
23347;DHT22;36852;45.466;11.066;2023-04-16T00:35:52;14.10;92.80
23347;DHT22;36852;45.466;11.066;2023-04-16T00:38:20;14.00;92.70
23347;DHT22;36852;45.466;11.066;2023-04-16T00:40:50;14.00;92.70
23347;DHT22;36852;45.466;11.066;2023-04-16T00:43:21;14.00;92.90
23347;DHT22;36852;45.466;11.066;2023-04-16T00:45:55;14.00;92.90
23347;DHT22;36852;45.466;11.066;2023-04-16T00:48:23;13.90;92.80
23347;DHT22;36852;45.466;11.066;2023-04-16T00:50:53;13.90;92.90
23347;DHT22;36852;45.466;11.066;2023-04-16T00:53:22;13.70;93.40
23347;DHT22;36852;45.466;11.066;2023-04-16T00:55:50;13.60;93.70
23347;DHT22;36852;45.466;11.066;2023-04-16T00:58:18;13.50;93.90
23347;DHT22;36852;45.466;11.066;2023-04-16T01:00:46;13.50;94.10
23347;DHT22;36852;45.466;11.066;2023-04-16T01:03:15;13.50;94.20
23347;DHT22;36852;45.466;11.066;2023-04-16T01:05:43;13.50;94.50
23347;DHT22;36852;45.466;11.066;2023-04-16T01:08:19;13.50;94.60
23347;DHT22;36852;45.466;11.066;2023-04-16T01:10:47;13.50;94.70
23347;DHT22;36852;45.466;11.066;2023-04-16T01:13:17;13.50;94.60
23347;DHT22;36852;45.466;11.066;2023-04-16T01:15:44;13.50;94.60
23347;DHT22;36852;45.466;11.066;2023-04-16T01:18:18;13.40;94.50
23347;DHT22;36852;45.466;11.066;2023-04-16T01:20:42;13.40;94.00
23347;DHT22;36852;45.466;11.066;2023-04-16T01:23:14;13.40;93.70
23347;DHT22;36852;45.466;11.066;2023-04-16T01:25:42;13.40;93.50
23347;DHT22;36852;45.466;11.066;2023-04-16T01:28:10;13.40;93.50
23347;DHT22;36852;45.466;11.066;2023-04-16T01:30:38;13.30;93.80
23347;DHT22;36852;45.466;11.066;2023-04-16T01:33:11;13.30;93.90
23347;DHT22;36852;45.466;11.066;2023-04-16T01:35:39;13.30;94.10
23347;DHT22;36852;45.466;11.066;2023-04-16T01:38:08;13.20;94.00
23347;DHT22;36852;45.466;11.066;2023-04-16T01:40:37;13.20;94.00
23347;DHT22;36852;45.466;11.066;2023-04-16T01:43:05;13.10;94.00
23347;DHT22;36852;45.466;11.066;2023-04-16T01:45:33;13.10;93.70
23347;DHT22;36852;45.466;11.066;2023-04-16T01:48:02;13.10;93.70
23347;DHT22;36852;45.466;11.066;2023-04-16T01:50:30;13.00;93.80
23347;DHT22;36852;45.466;11.066;2023-04-16T01:53:07;13.00;93.70
23347;DHT22;36852;45.466;11.066;2023-04-16T01:55:35;13.00;93.90
23347;DHT22;36852;45.466;11.066;2023-04-16T01:58:04;13.00;93.80
23347;DHT22;36852;45.466;11.066;2023-04-16T02:00:33;12.90;93.70
23347;DHT22;36852;45.466;11.066;2023-04-16T02:03:07;12.90;93.70
23347;DHT22;36852;45.466;11.066;2023-04-16T02:05:39;12.80;93.70
23347;DHT22;36852;45.466;11.066;2023-04-16T02:08:07;12.80;93.80
23347;DHT22;36852;45.466;11.066;2023-04-16T02:10:35;12.80;93.80
23347;DHT22;36852;45.466;11.066;2023-04-16T02:13:03;12.80;93.60
23347;DHT22;36852;45.466;11.066;2023-04-16T02:15:43;12.80;93.40
23347;DHT22;36852;45.466;11.066;2023-04-16T02:18:13;12.80;93.50
23347;DHT22;36852;45.466;11.066;2023-04-16T02:20:42;12.80;93.80
23347;DHT22;36852;45.466;11.066;2023-04-16T02:23:11;12.70;94.10
23347;DHT22;36852;45.466;11.066;2023-04-16T02:25:47;12.70;93.80
23347;DHT22;36852;45.466;11.066;2023-04-16T02:28:14;12.60;94.00
23347;DHT22;36852;45.466;11.066;2023-04-16T02:30:44;12.60;94.00
23347;DHT22;36852;45.466;11.066;2023-04-16T02:33:13;12.60;94.20
23347;DHT22;36852;45.466;11.066;2023-04-16T02:35:44;12.60;93.90
23347;DHT22;36852;45.466;11.066;2023-04-16T02:38:12;12.60;93.90
23347;DHT22;36852;45.466;11.066;2023-04-16T02:40:40;12.60;94.00
23347;DHT22;36852;45.466;11.066;2023-04-16T02:43:14;12.50;94.30
23347;DHT22;36852;45.466;11.066;2023-04-16T02:45:42;12.60;94.30
23347;DHT22;36852;45.466;11.066;2023-04-16T02:48:11;12.50;94.10
23347;DHT22;36852;45.466;11.066;2023-04-16T02:50:39;12.60;94.40
23347;DHT22;36852;45.466;11.066;2023-04-16T02:53:07;12.50;94.20
23347;DHT22;36852;45.466;11.066;2023-04-16T02:55:39;12.50;94.30
23347;DHT22;36852;45.466;11.066;2023-04-16T02:58:07;12.60;94.20
23347;DHT22;36852;45.466;11.066;2023-04-16T03:00:36;12.50;94.10
23347;DHT22;36852;45.466;11.066;2023-04-16T03:03:05;12.50;94.10
23347;DHT22;36852;45.466;11.066;2023-04-16T03:05:33;12.50;94.30
23347;DHT22;36852;45.466;11.066;2023-04-16T03:08:00;12.40;94.40
23347;DHT22;36852;45.466;11.066;2023-04-16T03:10:28;12.40;94.50
23347;DHT22;36852;45.466;11.066;2023-04-16T03:12:56;12.40;94.50
23347;DHT22;36852;45.466;11.066;2023-04-16T03:15:24;12.40;94.60
23347;DHT22;36852;45.466;11.066;2023-04-16T03:20:43;12.40;94.80
23347;DHT22;36852;45.466;11.066;2023-04-16T03:23:11;12.40;94.70
23347;DHT22;36852;45.466;11.066;2023-04-16T03:25:38;12.40;94.50
23347;DHT22;36852;45.466;11.066;2023-04-16T03:28:07;12.30;94.70
23347;DHT22;36852;45.466;11.066;2023-04-16T03:30:36;12.40;95.00
23347;DHT22;36852;45.466;11.066;2023-04-16T03:33:04;12.30;95.10
23347;DHT22;36852;45.466;11.066;2023-04-16T03:35:32;12.30;95.40
23347;DHT22;36852;45.466;11.066;2023-04-16T03:38:03;12.30;95.90
23347;DHT22;36852;45.466;11.066;2023-04-16T03:40:32;12.40;95.60
23347;DHT22;36852;45.466;11.066;2023-04-16T03:43:20;12.40;95.70
23347;DHT22;36852;45.466;11.066;2023-04-16T03:45:48;12.40;95.60
23347;DHT22;36852;45.466;11.066;2023-04-16T03:48:17;12.40;95.80
23347;DHT22;36852;45.466;11.066;2023-04-16T03:50:46;12.40;96.60
23347;DHT22;36852;45.466;11.066;2023-04-16T03:53:15;12.40;96.50
23347;DHT22;36852;45.466;11.066;2023-04-16T03:55:49;12.40;96.50
23347;DHT22;36852;45.466;11.066;2023-04-16T03:58:20;12.40;96.60
23347;DHT22;36852;45.466;11.066;2023-04-16T04:00:48;12.40;96.60
23347;DHT22;36852;45.466;11.066;2023-04-16T04:03:18;12.40;96.70
23347;DHT22;36852;45.466;11.066;2023-04-16T04:05:47;12.40;97.10
23347;DHT22;36852;45.466;11.066;2023-04-16T04:08:17;12.40;97.50
23347;DHT22;36852;45.466;11.066;2023-04-16T04:10:45;12.30;97.50
23347;DHT22;36852;45.466;11.066;2023-04-16T04:13:13;12.30;97.90
23347;DHT22;36852;45.466;11.066;2023-04-16T04:15:41;12.30;98.10
23347;DHT22;36852;45.466;11.066;2023-04-16T04:18:10;12.20;98.10
23347;DHT22;36852;45.466;11.066;2023-04-16T04:20:39;12.20;98.00
23347;DHT22;36852;45.466;11.066;2023-04-16T04:23:07;12.20;98.10
23347;DHT22;36852;45.466;11.066;2023-04-16T04:25:35;12.10;97.80
23347;DHT22;36852;45.466;11.066;2023-04-16T04:28:04;12.10;97.90
23347;DHT22;36852;45.466;11.066;2023-04-16T04:30:35;12.10;98.30
23347;DHT22;36852;45.466;11.066;2023-04-16T04:33:04;12.10;98.50
23347;DHT22;36852;45.466;11.066;2023-04-16T04:35:36;12.10;98.70
23347;DHT22;36852;45.466;11.066;2023-04-16T04:38:04;12.10;99.00
23347;DHT22;36852;45.466;11.066;2023-04-16T04:40:32;12.10;99.20
23347;DHT22;36852;45.466;11.066;2023-04-16T04:43:00;12.00;99.30
23347;DHT22;36852;45.466;11.066;2023-04-16T04:45:28;12.00;99.50
23347;DHT22;36852;45.466;11.066;2023-04-16T04:47:57;12.00;99.60
23347;DHT22;36852;45.466;11.066;2023-04-16T04:50:25;12.00;99.70
23347;DHT22;36852;45.466;11.066;2023-04-16T04:52:53;12.00;99.90
23347;DHT22;36852;45.466;11.066;2023-04-16T04:55:21;12.00;99.90
23347;DHT22;36852;45.466;11.066;2023-04-16T04:57:49;12.00;99.90
23347;DHT22;36852;45.466;11.066;2023-04-16T05:00:17;12.00;99.90
23347;DHT22;36852;45.466;11.066;2023-04-16T05:02:49;12.00;99.90
23347;DHT22;36852;45.466;11.066;2023-04-16T05:05:18;12.00;99.90
23347;DHT22;36852;45.466;11.066;2023-04-16T05:07:47;12.00;99.90
23347;DHT22;36852;45.466;11.066;2023-04-16T05:10:15;12.00;99.90
23347;DHT22;36852;45.466;11.066;2023-04-16T05:12:45;12.00;99.90
23347;DHT22;36852;45.466;11.066;2023-04-16T05:15:15;12.00;99.90
23347;DHT22;36852;45.466;11.066;2023-04-16T05:17:44;12.00;99.90
23347;DHT22;36852;45.466;11.066;2023-04-16T05:20:13;12.00;99.90
23347;DHT22;36852;45.466;11.066;2023-04-16T05:22:41;12.00;99.90
23347;DHT22;36852;45.466;11.066;2023-04-16T05:25:09;12.00;99.90
23347;DHT22;36852;45.466;11.066;2023-04-16T05:27:37;12.00;99.90
23347;DHT22;36852;45.466;11.066;2023-04-16T05:30:06;12.00;99.90
23347;DHT22;36852;45.466;11.066;2023-04-16T05:32:35;12.00;99.90
23347;DHT22;36852;45.466;11.066;2023-04-16T05:35:03;12.10;99.90
23347;DHT22;36852;45.466;11.066;2023-04-16T05:37:36;12.10;99.90
23347;DHT22;36852;45.466;11.066;2023-04-16T05:42:50;12.20;99.90
23347;DHT22;36852;45.466;11.066;2023-04-16T05:45:18;12.20;99.90
23347;DHT22;36852;45.466;11.066;2023-04-16T05:47:46;12.20;99.90
23347;DHT22;36852;45.466;11.066;2023-04-16T05:50:14;12.30;99.90
23347;DHT22;36852;45.466;11.066;2023-04-16T05:52:42;12.30;99.90
23347;DHT22;36852;45.466;11.066;2023-04-16T05:55:09;12.40;99.90
23347;DHT22;36852;45.466;11.066;2023-04-16T05:57:37;12.40;99.90
23347;DHT22;36852;45.466;11.066;2023-04-16T06:00:06;12.40;99.90
23347;DHT22;36852;45.466;11.066;2023-04-16T06:02:38;12.50;99.90
23347;DHT22;36852;45.466;11.066;2023-04-16T06:05:07;12.50;99.90
23347;DHT22;36852;45.466;11.066;2023-04-16T06:07:54;12.60;99.90
23347;DHT22;36852;45.466;11.066;2023-04-16T06:10:22;12.60;99.90
23347;DHT22;36852;45.466;11.066;2023-04-16T06:12:52;12.60;99.90
23347;DHT22;36852;45.466;11.066;2023-04-16T06:15:20;12.70;99.90
23347;DHT22;36852;45.466;11.066;2023-04-16T06:17:48;12.70;99.90
23347;DHT22;36852;45.466;11.066;2023-04-16T06:20:17;12.70;99.90
23347;DHT22;36852;45.466;11.066;2023-04-16T06:22:45;12.70;99.90
23347;DHT22;36852;45.466;11.066;2023-04-16T06:25:13;12.80;99.90
23347;DHT22;36852;45.466;11.066;2023-04-16T06:27:42;12.80;99.90
23347;DHT22;36852;45.466;11.066;2023-04-16T06:30:14;12.80;99.90
23347;DHT22;36852;45.466;11.066;2023-04-16T06:32:43;12.80;99.90
23347;DHT22;36852;45.466;11.066;2023-04-16T06:35:11;12.80;99.90
23347;DHT22;36852;45.466;11.066;2023-04-16T06:37:39;12.80;99.90
23347;DHT22;36852;45.466;11.066;2023-04-16T06:40:08;12.80;99.90
23347;DHT22;36852;45.466;11.066;2023-04-16T06:42:36;12.80;99.90
23347;DHT22;36852;45.466;11.066;2023-04-16T06:45:05;12.80;99.90
23347;DHT22;36852;45.466;11.066;2023-04-16T06:47:33;12.80;99.90
23347;DHT22;36852;45.466;11.066;2023-04-16T06:50:01;12.80;99.90
23347;DHT22;36852;45.466;11.066;2023-04-16T06:52:34;12.80;99.90
23347;DHT22;36852;45.466;11.066;2023-04-16T06:55:03;12.90;99.90
23347;DHT22;36852;45.466;11.066;2023-04-16T06:57:31;13.00;99.90
23347;DHT22;36852;45.466;11.066;2023-04-16T06:59:59;13.00;99.90
23347;DHT22;36852;45.466;11.066;2023-04-16T07:02:27;13.10;99.90
23347;DHT22;36852;45.466;11.066;2023-04-16T07:04:55;13.10;99.90
23347;DHT22;36852;45.466;11.066;2023-04-16T07:07:23;13.10;99.90
23347;DHT22;36852;45.466;11.066;2023-04-16T07:09:51;13.20;99.90
23347;DHT22;36852;45.466;11.066;2023-04-16T07:12:19;13.20;99.90
23347;DHT22;36852;45.466;11.066;2023-04-16T07:14:50;13.20;99.90
23347;DHT22;36852;45.466;11.066;2023-04-16T07:17:18;13.20;99.90
23347;DHT22;36852;45.466;11.066;2023-04-16T07:19:45;13.30;99.90
23347;DHT22;36852;45.466;11.066;2023-04-16T07:22:14;13.30;99.90
23347;DHT22;36852;45.466;11.066;2023-04-16T07:24:42;13.40;99.90
23347;DHT22;36852;45.466;11.066;2023-04-16T07:27:10;13.50;99.90
23347;DHT22;36852;45.466;11.066;2023-04-16T07:29:39;13.60;99.90
23347;DHT22;36852;45.466;11.066;2023-04-16T07:32:07;13.60;99.90
23347;DHT22;36852;45.466;11.066;2023-04-16T07:34:35;13.70;99.90
23347;DHT22;36852;45.466;11.066;2023-04-16T07:37:04;13.70;99.90
23347;DHT22;36852;45.466;11.066;2023-04-16T07:39:32;13.80;99.90
23347;DHT22;36852;45.466;11.066;2023-04-16T07:42:00;13.90;99.90
23347;DHT22;36852;45.466;11.066;2023-04-16T07:44:28;13.90;99.90
23347;DHT22;36852;45.466;11.066;2023-04-16T07:46:56;14.00;99.90
23347;DHT22;36852;45.466;11.066;2023-04-16T07:49:29;14.10;99.90
23347;DHT22;36852;45.466;11.066;2023-04-16T07:51:57;14.10;99.90
23347;DHT22;36852;45.466;11.066;2023-04-16T07:54:31;14.20;99.90
23347;DHT22;36852;45.466;11.066;2023-04-16T07:56:59;14.30;99.90
23347;DHT22;36852;45.466;11.066;2023-04-16T08:05:00;14.50;99.90
23347;DHT22;36852;45.466;11.066;2023-04-16T08:07:29;14.50;99.90
23347;DHT22;36852;45.466;11.066;2023-04-16T08:09:58;14.60;99.90
23347;DHT22;36852;45.466;11.066;2023-04-16T08:12:28;14.60;99.90
23347;DHT22;36852;45.466;11.066;2023-04-16T08:14:56;14.70;99.90
23347;DHT22;36852;45.466;11.066;2023-04-16T08:17:23;14.70;99.90
23347;DHT22;36852;45.466;11.066;2023-04-16T08:19:51;14.80;99.90
23347;DHT22;36852;45.466;11.066;2023-04-16T08:22:19;14.80;99.90
23347;DHT22;36852;45.466;11.066;2023-04-16T08:24:47;14.90;99.90
23347;DHT22;36852;45.466;11.066;2023-04-16T08:27:15;15.00;99.90
23347;DHT22;36852;45.466;11.066;2023-04-16T08:29:45;15.10;99.90
23347;DHT22;36852;45.466;11.066;2023-04-16T08:32:16;15.20;99.90
23347;DHT22;36852;45.466;11.066;2023-04-16T08:34:44;15.30;99.90
23347;DHT22;36852;45.466;11.066;2023-04-16T08:37:12;15.30;99.90
23347;DHT22;36852;45.466;11.066;2023-04-16T08:39:39;15.40;99.90
23347;DHT22;36852;45.466;11.066;2023-04-16T08:42:17;15.40;99.90
23347;DHT22;36852;45.466;11.066;2023-04-16T08:44:42;15.50;99.90
23347;DHT22;36852;45.466;11.066;2023-04-16T08:47:11;15.50;99.90
23347;DHT22;36852;45.466;11.066;2023-04-16T08:49:43;15.60;99.80
23347;DHT22;36852;45.466;11.066;2023-04-16T08:52:17;15.60;99.70
23347;DHT22;36852;45.466;11.066;2023-04-16T08:55:00;15.60;99.80
23347;DHT22;36852;45.466;11.066;2023-04-16T08:57:29;15.70;99.30
23347;DHT22;36852;45.466;11.066;2023-04-16T08:59:57;15.70;99.00
23347;DHT22;36852;45.466;11.066;2023-04-16T09:02:25;15.70;98.90
23347;DHT22;36852;45.466;11.066;2023-04-16T09:04:54;15.80;98.20
23347;DHT22;36852;45.466;11.066;2023-04-16T09:07:24;15.70;98.40
23347;DHT22;36852;45.466;11.066;2023-04-16T09:09:53;15.70;98.50
23347;DHT22;36852;45.466;11.066;2023-04-16T09:12:22;15.80;98.40
23347;DHT22;36852;45.466;11.066;2023-04-16T09:14:50;15.80;98.20
23347;DHT22;36852;45.466;11.066;2023-04-16T09:17:19;15.80;97.30
23347;DHT22;36852;45.466;11.066;2023-04-16T09:19:47;15.80;97.90
23347;DHT22;36852;45.466;11.066;2023-04-16T09:22:15;15.80;97.30
23347;DHT22;36852;45.466;11.066;2023-04-16T09:24:43;15.80;97.60
23347;DHT22;36852;45.466;11.066;2023-04-16T09:27:11;15.80;98.40
23347;DHT22;36852;45.466;11.066;2023-04-16T09:29:40;15.90;98.40
23347;DHT22;36852;45.466;11.066;2023-04-16T09:32:09;15.90;97.90
23347;DHT22;36852;45.466;11.066;2023-04-16T09:37:30;16.00;97.30
23347;DHT22;36852;45.466;11.066;2023-04-16T09:40:00;16.10;96.90
23347;DHT22;36852;45.466;11.066;2023-04-16T09:42:33;16.10;96.70
23347;DHT22;36852;45.466;11.066;2023-04-16T09:45:02;16.10;96.10
23347;DHT22;36852;45.466;11.066;2023-04-16T09:47:40;16.00;96.10
23347;DHT22;36852;45.466;11.066;2023-04-16T09:50:13;16.00;96.50
23347;DHT22;36852;45.466;11.066;2023-04-16T09:52:43;16.10;96.80
23347;DHT22;36852;45.466;11.066;2023-04-16T09:55:12;16.20;96.90
23347;DHT22;36852;45.466;11.066;2023-04-16T09:57:39;16.20;96.20
23347;DHT22;36852;45.466;11.066;2023-04-16T10:00:08;16.20;96.10
23347;DHT22;36852;45.466;11.066;2023-04-16T10:02:39;16.30;95.70
23347;DHT22;36852;45.466;11.066;2023-04-16T10:05:12;16.30;95.00
23347;DHT22;36852;45.466;11.066;2023-04-16T10:07:42;16.20;95.20
23347;DHT22;36852;45.466;11.066;2023-04-16T10:10:10;16.20;96.20
23347;DHT22;36852;45.466;11.066;2023-04-16T10:12:37;16.30;96.10
23347;DHT22;36852;45.466;11.066;2023-04-16T10:15:06;16.30;95.80
23347;DHT22;36852;45.466;11.066;2023-04-16T10:17:34;16.40;95.70
23347;DHT22;36852;45.466;11.066;2023-04-16T10:20:05;16.40;95.90
23347;DHT22;36852;45.466;11.066;2023-04-16T10:22:33;16.60;95.80
23347;DHT22;36852;45.466;11.066;2023-04-16T10:25:02;16.60;95.20
23347;DHT22;36852;45.466;11.066;2023-04-16T10:27:30;16.70;94.10
23347;DHT22;36852;45.466;11.066;2023-04-16T10:29:59;16.80;94.10
23347;DHT22;36852;45.466;11.066;2023-04-16T10:32:27;16.80;94.20
23347;DHT22;36852;45.466;11.066;2023-04-16T10:34:56;16.90;94.00
23347;DHT22;36852;45.466;11.066;2023-04-16T10:37:30;16.90;93.40
23347;DHT22;36852;45.466;11.066;2023-04-16T10:39:58;17.00;93.60
23347;DHT22;36852;45.466;11.066;2023-04-16T10:42:26;17.00;94.20
23347;DHT22;36852;45.466;11.066;2023-04-16T10:44:58;17.10;93.10
23347;DHT22;36852;45.466;11.066;2023-04-16T10:47:27;17.20;94.10
23347;DHT22;36852;45.466;11.066;2023-04-16T10:49:57;17.20;93.20
23347;DHT22;36852;45.466;11.066;2023-04-16T10:52:26;17.20;92.00
23347;DHT22;36852;45.466;11.066;2023-04-16T10:54:58;17.30;91.50
23347;DHT22;36852;45.466;11.066;2023-04-16T10:57:28;17.30;91.50
23347;DHT22;36852;45.466;11.066;2023-04-16T10:59:56;17.30;91.40
23347;DHT22;36852;45.466;11.066;2023-04-16T11:02:27;17.30;90.60
23347;DHT22;36852;45.466;11.066;2023-04-16T11:04:56;17.20;90.40
23347;DHT22;36852;45.466;11.066;2023-04-16T11:07:33;17.10;90.90
23347;DHT22;36852;45.466;11.066;2023-04-16T11:10:05;17.10;90.30
23347;DHT22;36852;45.466;11.066;2023-04-16T11:12:35;17.10;91.40
23347;DHT22;36852;45.466;11.066;2023-04-16T11:15:11;17.20;90.80
23347;DHT22;36852;45.466;11.066;2023-04-16T11:17:43;17.20;90.50
23347;DHT22;36852;45.466;11.066;2023-04-16T11:20:23;17.30;90.30
23347;DHT22;36852;45.466;11.066;2023-04-16T11:22:52;17.30;90.00
23347;DHT22;36852;45.466;11.066;2023-04-16T11:27:51;17.40;89.00
23347;DHT22;36852;45.466;11.066;2023-04-16T11:30:35;17.50;89.20
23347;DHT22;36852;45.466;11.066;2023-04-16T11:33:03;17.60;90.40
23347;DHT22;36852;45.466;11.066;2023-04-16T11:35:31;17.60;89.80
23347;DHT22;36852;45.466;11.066;2023-04-16T11:37:59;17.70;90.10
23347;DHT22;36852;45.466;11.066;2023-04-16T11:40:30;17.80;90.00
23347;DHT22;36852;45.466;11.066;2023-04-16T11:43:03;17.90;90.00
23347;DHT22;36852;45.466;11.066;2023-04-16T11:45:35;17.90;89.60
23347;DHT22;36852;45.466;11.066;2023-04-16T11:48:03;18.00;90.60
23347;DHT22;36852;45.466;11.066;2023-04-16T11:50:31;18.10;90.50
23347;DHT22;36852;45.466;11.066;2023-04-16T11:53:03;18.20;89.50
23347;DHT22;36852;45.466;11.066;2023-04-16T11:55:41;18.20;86.60
23347;DHT22;36852;45.466;11.066;2023-04-16T11:58:13;18.20;88.70
23347;DHT22;36852;45.466;11.066;2023-04-16T12:00:44;18.30;90.00
23347;DHT22;36852;45.466;11.066;2023-04-16T12:03:12;18.30;85.30
23347;DHT22;36852;45.466;11.066;2023-04-16T12:05:40;18.40;84.80
23347;DHT22;36852;45.466;11.066;2023-04-16T12:08:09;18.40;83.50
23347;DHT22;36852;45.466;11.066;2023-04-16T12:10:54;18.40;82.90
23347;DHT22;36852;45.466;11.066;2023-04-16T12:13:22;18.40;84.50
23347;DHT22;36852;45.466;11.066;2023-04-16T12:15:55;18.40;84.30
23347;DHT22;36852;45.466;11.066;2023-04-16T12:18:27;18.50;85.10
23347;DHT22;36852;45.466;11.066;2023-04-16T12:20:53;18.50;82.10
23347;DHT22;36852;45.466;11.066;2023-04-16T12:23:27;18.60;84.30
23347;DHT22;36852;45.466;11.066;2023-04-16T12:25:56;18.70;83.10
23347;DHT22;36852;45.466;11.066;2023-04-16T12:28:34;18.80;83.10
23347;DHT22;36852;45.466;11.066;2023-04-16T12:31:04;18.90;84.70
23347;DHT22;36852;45.466;11.066;2023-04-16T12:33:32;19.00;84.40
23347;DHT22;36852;45.466;11.066;2023-04-16T12:36:18;19.20;85.70
23347;DHT22;36852;45.466;11.066;2023-04-16T12:38:46;19.30;84.60
23347;DHT22;36852;45.466;11.066;2023-04-16T12:41:14;19.40;82.80
23347;DHT22;36852;45.466;11.066;2023-04-16T12:43:42;19.50;82.40
23347;DHT22;36852;45.466;11.066;2023-04-16T12:46:10;19.60;79.10
23347;DHT22;36852;45.466;11.066;2023-04-16T12:48:40;19.50;76.60
23347;DHT22;36852;45.466;11.066;2023-04-16T12:51:08;19.60;77.40
23347;DHT22;36852;45.466;11.066;2023-04-16T12:53:36;19.70;78.40
23347;DHT22;36852;45.466;11.066;2023-04-16T12:56:04;19.80;77.60
23347;DHT22;36852;45.466;11.066;2023-04-16T12:58:33;19.90;77.60
23347;DHT22;36852;45.466;11.066;2023-04-16T13:01:01;20.10;79.30
23347;DHT22;36852;45.466;11.066;2023-04-16T13:03:32;19.80;73.40
23347;DHT22;36852;45.466;11.066;2023-04-16T13:06:03;19.60;73.70
23347;DHT22;36852;45.466;11.066;2023-04-16T13:08:31;19.60;75.70
23347;DHT22;36852;45.466;11.066;2023-04-16T13:10:58;19.70;74.60
23347;DHT22;36852;45.466;11.066;2023-04-16T13:13:26;19.70;75.00
23347;DHT22;36852;45.466;11.066;2023-04-16T13:15:54;19.80;75.70
23347;DHT22;36852;45.466;11.066;2023-04-16T13:18:32;19.80;75.60
23347;DHT22;36852;45.466;11.066;2023-04-16T13:21:03;20.00;79.70
23347;DHT22;36852;45.466;11.066;2023-04-16T13:23:34;20.30;80.40
23347;DHT22;36852;45.466;11.066;2023-04-16T13:26:02;20.50;76.50
23347;DHT22;36852;45.466;11.066;2023-04-16T13:28:30;20.50;73.10
23347;DHT22;36852;45.466;11.066;2023-04-16T13:30:58;20.60;73.70
23347;DHT22;36852;45.466;11.066;2023-04-16T13:33:28;20.50;71.50
23347;DHT22;36852;45.466;11.066;2023-04-16T13:35:56;20.50;71.40
23347;DHT22;36852;45.466;11.066;2023-04-16T13:38:23;20.50;73.30
23347;DHT22;36852;45.466;11.066;2023-04-16T13:40:51;20.50;73.70
23347;DHT22;36852;45.466;11.066;2023-04-16T13:43:19;20.60;74.40
23347;DHT22;36852;45.466;11.066;2023-04-16T13:45:48;20.60;73.20
23347;DHT22;36852;45.466;11.066;2023-04-16T13:51:01;20.90;71.20
23347;DHT22;36852;45.466;11.066;2023-04-16T13:53:29;20.90;71.80
23347;DHT22;36852;45.466;11.066;2023-04-16T13:55:57;20.90;68.70
23347;DHT22;36852;45.466;11.066;2023-04-16T13:58:25;20.70;69.00
23347;DHT22;36852;45.466;11.066;2023-04-16T14:00:53;20.50;69.80
23347;DHT22;36852;45.466;11.066;2023-04-16T14:03:21;20.40;70.60
23347;DHT22;36852;45.466;11.066;2023-04-16T14:05:49;20.30;70.70
23347;DHT22;36852;45.466;11.066;2023-04-16T14:08:18;20.20;70.60
23347;DHT22;36852;45.466;11.066;2023-04-16T14:10:48;20.10;71.10
23347;DHT22;36852;45.466;11.066;2023-04-16T14:13:16;20.00;70.90
23347;DHT22;36852;45.466;11.066;2023-04-16T14:15:45;19.90;70.80
23347;DHT22;36852;45.466;11.066;2023-04-16T14:18:12;19.90;71.90
23347;DHT22;36852;45.466;11.066;2023-04-16T14:20:40;19.80;73.00
23347;DHT22;36852;45.466;11.066;2023-04-16T14:23:08;19.80;73.70
23347;DHT22;36852;45.466;11.066;2023-04-16T14:25:41;19.70;73.80
23347;DHT22;36852;45.466;11.066;2023-04-16T14:28:08;19.60;74.20
23347;DHT22;36852;45.466;11.066;2023-04-16T14:30:41;19.60;74.00
23347;DHT22;36852;45.466;11.066;2023-04-16T14:33:09;19.50;73.90
23347;DHT22;36852;45.466;11.066;2023-04-16T14:35:37;19.50;74.20
23347;DHT22;36852;45.466;11.066;2023-04-16T14:38:05;19.50;75.80
23347;DHT22;36852;45.466;11.066;2023-04-16T14:40:36;19.40;76.50
23347;DHT22;36852;45.466;11.066;2023-04-16T14:43:04;19.40;77.50
23347;DHT22;36852;45.466;11.066;2023-04-16T14:45:31;19.50;75.30
23347;DHT22;36852;45.466;11.066;2023-04-16T14:47:59;19.40;74.80
23347;DHT22;36852;45.466;11.066;2023-04-16T14:50:27;19.50;73.70
23347;DHT22;36852;45.466;11.066;2023-04-16T14:52:55;19.40;74.00
23347;DHT22;36852;45.466;11.066;2023-04-16T14:55:24;19.40;74.20
23347;DHT22;36852;45.466;11.066;2023-04-16T14:57:52;19.40;74.30
23347;DHT22;36852;45.466;11.066;2023-04-16T15:00:40;19.60;74.10
23347;DHT22;36852;45.466;11.066;2023-04-16T15:03:08;19.90;74.20
23347;DHT22;36852;45.466;11.066;2023-04-16T15:05:37;20.10;72.70
23347;DHT22;36852;45.466;11.066;2023-04-16T15:08:05;20.10;72.20
23347;DHT22;36852;45.466;11.066;2023-04-16T15:10:33;20.10;72.00
23347;DHT22;36852;45.466;11.066;2023-04-16T15:13:01;20.10;72.00
23347;DHT22;36852;45.466;11.066;2023-04-16T15:15:34;20.00;72.30
23347;DHT22;36852;45.466;11.066;2023-04-16T15:18:01;19.90;72.70
23347;DHT22;36852;45.466;11.066;2023-04-16T15:20:29;19.90;73.40
23347;DHT22;36852;45.466;11.066;2023-04-16T15:22:57;19.80;74.60
23347;DHT22;36852;45.466;11.066;2023-04-16T15:25:33;19.80;74.30
23347;DHT22;36852;45.466;11.066;2023-04-16T15:28:03;19.80;74.50
23347;DHT22;36852;45.466;11.066;2023-04-16T15:30:32;19.70;75.40
23347;DHT22;36852;45.466;11.066;2023-04-16T15:33:00;19.70;76.60
23347;DHT22;36852;45.466;11.066;2023-04-16T15:35:28;19.70;77.20
23347;DHT22;36852;45.466;11.066;2023-04-16T15:37:56;19.70;76.70
23347;DHT22;36852;45.466;11.066;2023-04-16T15:40:24;19.70;76.50
23347;DHT22;36852;45.466;11.066;2023-04-16T15:42:54;19.60;77.00
23347;DHT22;36852;45.466;11.066;2023-04-16T15:45:22;19.90;78.20
23347;DHT22;36852;45.466;11.066;2023-04-16T15:47:50;20.20;77.10